Time,TemperatureF,DewpointF,PressureIn,WindDirection,WindDirectionDegrees,WindSpeedMPH,WindSpeedGustMPH,Humidity,HourlyPrecipIn,Conditions,Clouds,dailyrainin,SolarRadiationWatts/m^2,SoftwareType,DateUTC
2013-01-28 00:01:00,52.0,38.2,29.47,WSW,256,8.6,11.1,59,-99.99,,,0.00,0,rob ver 1A,2013-01-28 07:01:00,
2013-01-28 00:06:00,51.9,38.1,29.47,WSW,257,10.1,12.4,59,-99.99,,,0.00,0,rob ver 1A,2013-01-28 07:06:00,
2013-01-28 00:11:00,51.7,38.0,29.47,West,260,9.9,12.3,59,-99.99,,,0.00,0,rob ver 1A,2013-01-28 07:11:00,
2013-01-28 00:16:00,51.5,38.7,29.44,WSW,257,8.2,10.8,62,-99.99,,,0.00,0,rob ver 1A,2013-01-28 07:16:00,
2013-01-28 00:21:00,51.3,39.2,29.44,WSW,242,6.9,8.7,62,-99.99,,,0.00,0,rob ver 1A,2013-01-28 07:21:00,
2013-01-28 00:26:00,51.5,38.3,29.47,SW,234,7.6,9.4,60,-99.99,,,0.00,0,rob ver 1B,2013-01-28 07:26:00,
2013-01-28 00:31:00,51.6,37.4,29.47,WSW,239,8.4,11.5,59,-99.99,,,0.00,0,rob ver 1A,2013-01-28 07:31:00,
2013-01-28 00:36:00,51.8,37.9,29.44,WSW,244,7.9,9.9,60,-99.99,,,0.00,0,rob ver 1A,2013-01-28 07:36:00,
2013-01-28 00:41:00,51.7,38.0,29.44,SW,234,7.3,9.2,57,-99.99,,,0.00,0,rob ver 1A,2013-01-28 07:41:00,
2013-01-28 00:46:00,52.0,37.7,29.44,SW,224,7.0,8.7,59,-99.99,,,0.00,0,rob ver 1A,2013-01-28 07:46:00,
2013-01-28 00:51:00,51.7,38.2,29.44,WSW,252,6.4,8.4,59,-99.99,,,0.00,0,rob ver 1A,2013-01-28 07:51:00,
2013-01-28 00:56:00,51.7,37.0,29.47,WSW,247,10.2,12.1,56,-99.99,,,0.00,0,rob ver 1A,2013-01-28 07:56:00,
2013-01-28 01:01:00,51.4,37.1,29.47,WSW,249,10.2,12.1,58,-99.99,,,0.00,0,rob ver 1A,2013-01-28 08:01:00,
2013-01-28 01:06:00,51.2,37.4,29.47,WSW,243,8.9,11.1,59,-99.99,,,0.00,0,rob ver 1A,2013-01-28 08:06:00,
2013-01-28 01:11:00,51.0,37.3,29.47,WSW,241,7.8,9.3,59,-99.99,,,0.00,0,rob ver 1A,2013-01-28 08:11:00,
2013-01-28 01:16:00,50.8,38.0,29.47,WSW,245,7.4,9.4,59,-99.99,,,0.00,0,rob ver 1A,2013-01-28 08:16:00,
2013-01-28 01:21:00,50.6,37.5,29.47,WSW,240,8.0,9.7,59,-99.99,,,0.00,0,rob ver 1A,2013-01-28 08:21:00,
2013-01-28 01:26:00,50.6,38.0,29.47,WSW,242,6.2,7.4,62,-99.99,,,0.00,0,rob ver 1B,2013-01-28 08:26:00,
2013-01-28 01:31:00,50.4,37.9,29.47,WSW,256,6.1,7.0,61,-99.99,,,0.00,0,rob ver 1A,2013-01-28 08:31:00,
2013-01-28 01:37:00,50.0,38.3,29.47,WSW,251,5.9,7.2,64,-99.99,,,0.00,0,rob ver 1A,2013-01-28 08:37:00,
2013-01-28 01:42:00,49.9,37.3,29.47,WSW,248,8.7,11.6,61,-99.99,,,0.00,0,rob ver 1A,2013-01-28 08:42:00,
2013-01-28 01:47:00,49.7,38.1,29.47,WSW,256,6.9,8.6,63,-99.99,,,0.00,0,rob ver 1A,2013-01-28 08:47:00,
2013-01-28 01:52:00,49.7,38.0,29.47,WSW,247,6.4,7.9,65,-99.99,,,0.00,0,rob ver 1B,2013-01-28 08:52:00,
2013-01-28 01:57:00,49.7,38.0,29.47,WSW,244,6.5,7.4,64,-99.99,,,0.00,0,rob ver 1A,2013-01-28 08:57:00,
2013-01-28 02:02:00,49.9,37.4,29.47,WSW,237,7.2,9.2,62,-99.99,,,0.00,0,rob ver 1A,2013-01-28 09:02:00,
2013-01-28 02:07:00,49.8,37.8,29.47,WSW,241,6.9,8.7,63,-99.99,,,0.00,0,rob ver 1A,2013-01-28 09:07:00,
2013-01-28 02:12:00,49.5,37.7,29.47,SW,235,5.4,7.0,63,-99.99,,,0.00,0,rob ver 1A,2013-01-28 09:12:00,
2013-01-28 02:17:00,49.4,38.1,29.47,SW,236,5.0,6.4,65,-99.99,,,0.00,0,rob ver 1A,2013-01-28 09:17:00,
2013-01-28 02:22:00,49.6,37.6,29.47,SW,234,6.4,7.4,62,-99.99,,,0.00,0,rob ver 1A,2013-01-28 09:22:00,
2013-01-28 02:27:00,49.2,38.1,29.47,WSW,241,5.0,7.0,65,-99.99,,,0.00,0,rob ver 1A,2013-01-28 09:27:00,
2013-01-28 02:32:00,49.2,38.2,29.47,WSW,245,5.5,6.5,65,-99.99,,,0.00,0,rob ver 1A,2013-01-28 09:32:00,
2013-01-28 02:37:00,48.9,38.0,29.47,WSW,240,5.5,6.6,66,-99.99,,,0.00,0,rob ver 1A,2013-01-28 09:37:00,
2013-01-28 02:42:00,48.9,37.7,29.47,SW,225,7.1,11.2,62,-99.99,,,0.00,0,rob ver 1A,2013-01-28 09:42:00,
2013-01-28 02:47:00,49.2,37.4,29.47,SW,227,9.6,14.2,62,-99.99,,,0.00,0,rob ver 1A,2013-01-28 09:47:00,
2013-01-28 02:53:00,49.2,37.4,29.47,SW,228,9.8,12.0,62,-99.99,,,0.00,0,rob ver 1A,2013-01-28 09:53:00,
2013-01-28 02:58:00,49.0,37.3,29.47,SW,230,11.2,13.1,63,-99.99,,,0.00,0,rob ver 1A,2013-01-28 09:58:00,
2013-01-28 03:03:00,49.0,36.9,29.47,SW,227,12.4,15.5,62,-99.99,,,0.00,0,rob ver 1A,2013-01-28 10:03:00,
2013-01-28 03:08:00,49.3,36.3,29.47,SW,226,13.0,15.5,61,-99.99,,,0.00,0,rob ver 1A,2013-01-28 10:08:00,
2013-01-28 03:13:00,48.9,36.5,29.47,SW,231,12.4,16.4,62,-99.99,,,0.00,0,rob ver 1A,2013-01-28 10:13:00,
2013-01-28 03:18:00,48.6,36.5,29.47,SW,229,10.5,13.4,63,-99.99,,,0.00,0,rob ver 1A,2013-01-28 10:18:00,
2013-01-28 03:23:00,48.4,36.3,29.47,SW,236,10.7,12.4,63,-99.99,,,0.00,0,rob ver 1A,2013-01-28 10:23:00,
2013-01-28 03:28:00,48.3,36.0,29.47,SW,232,11.2,14.7,62,-99.99,,,0.00,0,rob ver 1B,2013-01-28 10:28:00,
2013-01-28 03:33:00,48.2,36.3,29.47,SW,231,8.4,10.3,63,-99.99,,,0.00,0,rob ver 1A,2013-01-28 10:33:00,
2013-01-28 03:38:00,47.8,36.4,29.47,SW,222,9.5,12.2,64,-99.99,,,0.00,0,rob ver 1A,2013-01-28 10:38:00,
2013-01-28 03:43:00,47.8,36.5,29.47,SW,223,10.5,12.5,63,-99.99,,,0.00,0,rob ver 1A,2013-01-28 10:43:00,
2013-01-28 03:48:00,47.5,36.8,29.47,SW,228,8.5,11.1,66,-99.99,,,0.00,0,rob ver 1A,2013-01-28 10:48:00,
2013-01-28 03:53:00,47.4,36.8,29.47,SW,228,7.1,8.6,65,-99.99,,,0.00,0,rob ver 1A,2013-01-28 10:53:00,
2013-01-28 03:58:00,47.7,35.9,29.47,WSW,248,6.2,10.6,60,-99.99,,,0.00,0,rob ver 1A,2013-01-28 10:58:00,
2013-01-28 04:03:00,48.1,35.3,29.47,WSW,256,5.7,8.1,60,-99.99,,,0.00,0,rob ver 1A,2013-01-28 11:03:00,
2013-01-28 04:08:00,48.0,35.8,29.47,West,268,5.3,7.5,62,-99.99,,,0.00,0,rob ver 1A,2013-01-28 11:08:00,
2013-01-28 04:13:00,47.7,36.1,29.47,West,265,6.8,8.1,63,-99.99,,,0.00,0,rob ver 1A,2013-01-28 11:13:00,
2013-01-28 04:18:00,47.3,36.5,29.47,West,272,5.2,6.8,66,-99.99,,,0.00,0,rob ver 1A,2013-01-28 11:18:00,
2013-01-28 04:23:00,46.8,36.9,29.47,West,261,3.2,5.6,66,-99.99,,,0.00,0,rob ver 1A,2013-01-28 11:23:00,
2013-01-28 04:28:00,47.1,36.1,29.47,West,259,3.9,5.0,65,-99.99,,,0.00,0,rob ver 1B,2013-01-28 11:28:00,
2013-01-28 04:33:00,47.1,36.0,29.47,WSW,242,6.5,7.7,65,-99.99,,,0.00,0,rob ver 1A,2013-01-28 11:33:00,
2013-01-28 04:38:00,47.2,35.7,29.47,SW,235,9.9,11.7,64,-99.99,,,0.00,0,rob ver 1A,2013-01-28 11:38:00,
2013-01-28 04:44:00,47.5,35.5,29.44,SW,231,11.3,14.0,64,-99.99,,,0.00,0,rob ver 1A,2013-01-28 11:44:00,
2013-01-28 04:49:00,47.5,35.5,29.44,SW,226,10.2,12.5,62,-99.99,,,0.00,0,rob ver 1A,2013-01-28 11:49:00,
2013-01-28 04:54:00,47.3,35.5,29.47,SW,219,8.8,11.1,63,-99.99,,,0.00,0,rob ver 1A,2013-01-28 11:54:00,
2013-01-28 04:59:00,47.2,35.5,29.47,SW,218,8.4,10.2,63,-99.99,,,0.00,0,rob ver 1A,2013-01-28 11:59:00,
2013-01-28 05:04:00,47.0,35.7,29.47,SSW,210,8.0,9.6,65,-99.99,,,0.00,0,rob ver 1A,2013-01-28 12:04:00,
2013-01-28 05:09:00,46.8,35.8,29.47,SSW,213,7.0,8.5,66,-99.99,,,0.00,0,rob ver 1A,2013-01-28 12:09:00,
2013-01-28 05:14:00,46.5,36.2,29.47,SW,233,4.3,4.9,67,-99.99,,,0.00,0,rob ver 1A,2013-01-28 12:14:00,
2013-01-28 05:19:00,46.2,37.0,29.47,NNW,345,2.3,3.0,70,-99.99,,,0.00,0,rob ver 1A,2013-01-28 12:19:00,
2013-01-28 05:24:00,45.7,36.3,29.47,NNW,342,1.3,1.7,69,-99.99,,,0.00,0,rob ver 1A,2013-01-28 12:24:00,
2013-01-28 05:29:00,46.1,35.6,29.47,SW,234,2.1,2.6,66,-99.99,,,0.00,0,rob ver 1B,2013-01-28 12:29:00,
2013-01-28 05:34:00,46.6,35.5,29.47,South,182,3.1,3.9,65,-99.99,,,0.00,0,rob ver 1A,2013-01-28 12:34:00,
2013-01-28 05:39:00,46.5,35.6,29.47,South,179,5.9,6.7,65,-99.99,,,0.00,0,rob ver 1A,2013-01-28 12:39:00,
2013-01-28 05:44:00,46.0,36.1,29.47,South,181,6.2,7.4,67,-99.99,,,0.00,0,rob ver 1A,2013-01-28 12:44:00,
2013-01-28 05:49:00,45.8,36.3,29.47,South,184,5.7,6.4,69,-99.99,,,0.00,0,rob ver 1A,2013-01-28 12:49:00,
2013-01-28 05:54:00,45.5,36.0,29.47,South,187,6.1,6.9,69,-99.99,,,0.00,0,rob ver 1A,2013-01-28 12:54:00,
2013-01-28 05:59:00,45.3,36.5,29.47,South,183,7.1,7.8,70,-99.99,,,0.00,0,rob ver 1A,2013-01-28 12:59:00,
2013-01-28 06:04:00,45.6,36.0,29.47,South,191,7.0,8.3,69,-99.99,,,0.00,0,rob ver 1A,2013-01-28 13:04:00,
2013-01-28 06:09:00,45.6,35.9,29.47,South,191,7.3,9.4,67,-99.99,,,0.00,0,rob ver 1A,2013-01-28 13:09:00,
2013-01-28 06:14:00,45.5,36.1,29.47,SSW,199,6.8,7.9,69,-99.99,,,0.00,0,rob ver 1A,2013-01-28 13:14:00,
2013-01-28 06:19:00,45.8,35.8,29.47,South,186,5.7,6.7,68,-99.99,,,0.00,0,rob ver 1A,2013-01-28 13:19:00,
2013-01-28 06:24:00,45.5,35.7,29.47,South,188,6.2,8.3,68,-99.99,,,0.00,0,rob ver 1A,2013-01-28 13:24:00,
2013-01-28 06:29:00,45.9,35.4,29.47,SSW,209,6.3,7.9,66,-99.99,,,0.00,0,rob ver 1A,2013-01-28 13:29:00,
2013-01-28 06:34:00,46.0,35.3,29.47,SW,227,8.0,10.5,65,-99.99,,,0.00,0,rob ver 1A,2013-01-28 13:34:00,
2013-01-28 06:39:00,46.8,34.8,29.47,SW,228,8.5,9.8,62,-99.99,,,0.00,0,rob ver 1A,2013-01-28 13:39:00,
2013-01-28 06:44:00,47.1,34.7,29.47,SW,220,9.0,11.1,61,-99.99,,,0.00,0,rob ver 1A,2013-01-28 13:44:00,
2013-01-28 06:49:00,46.7,34.9,29.47,SSW,212,9.1,10.6,63,-99.99,,,0.00,0,rob ver 1A,2013-01-28 13:49:00,
2013-01-28 06:55:00,46.3,35.1,29.47,SSW,209,5.8,6.7,64,-99.99,,,0.00,0,rob ver 1A,2013-01-28 13:55:00,
2013-01-28 07:00:00,46.6,34.9,29.47,SW,214,5.0,5.5,63,-99.99,,,0.00,0,rob ver 1A,2013-01-28 14:00:00,
2013-01-28 07:05:00,46.2,35.1,29.47,South,185,4.6,5.4,64,-99.99,,,0.00,0,rob ver 1A,2013-01-28 14:05:00,
2013-01-28 07:10:00,45.6,35.2,29.47,South,171,4.5,4.9,66,-99.99,,,0.00,0,rob ver 1A,2013-01-28 14:10:00,
2013-01-28 07:15:00,45.5,35.5,29.47,SSE,166,5.0,5.7,68,-99.99,,,0.00,0,rob ver 1A,2013-01-28 14:15:00,
2013-01-28 07:20:00,44.9,36.0,29.47,SSE,155,3.4,4.2,70,-99.99,,,0.00,.329,rob ver 1A,2013-01-28 14:20:00,
2013-01-28 07:25:00,45.7,35.0,29.47,South,170,4.6,6.2,65,-99.99,,,0.00,.822,rob ver 1A,2013-01-28 14:25:00,
2013-01-28 07:30:00,46.3,35.4,29.50,SSW,204,3.7,5.3,65,-99.99,,,0.00,1.973,rob ver 1A,2013-01-28 14:30:00,
2013-01-28 07:35:00,45.8,35.3,29.50,SSW,196,3.7,5.1,66,-99.99,,,0.00,3.288,rob ver 1A,2013-01-28 14:35:00,
2013-01-28 07:40:00,46.1,35.3,29.50,SW,219,1.4,2.3,66,-99.99,,,0.00,5.919,rob ver 1A,2013-01-28 14:40:00,
2013-01-28 07:45:00,45.9,35.6,29.50,NNW,342,3.8,4.4,66,-99.99,,,0.00,15.13,rob ver 1B,2013-01-28 14:45:00,
2013-01-28 07:50:00,47.0,35.1,29.50,SW,219,2.1,3.6,62,-99.99,,,0.00,32.23,rob ver 1A,2013-01-28 14:50:00,
2013-01-28 07:55:00,47.9,35.4,29.50,West,262,5.3,6.7,61,-99.99,,,0.00,44.39,rob ver 1A,2013-01-28 14:55:00,
2013-01-28 08:00:00,48.3,35.3,29.50,WSW,257,3.9,6.0,60,-99.99,,,0.00,55.9,rob ver 1A,2013-01-28 15:00:00,
2013-01-28 08:05:00,48.2,35.3,29.50,SW,231,5.6,6.6,61,-99.99,,,0.00,68.4,rob ver 1A,2013-01-28 15:05:00,
2013-01-28 08:10:00,48.6,35.1,29.50,SSW,211,4.3,4.9,59,-99.99,,,0.00,80.2,rob ver 1A,2013-01-28 15:10:00,
2013-01-28 08:15:00,48.4,36.0,29.50,SSW,213,6.8,8.0,61,-99.99,,,0.00,96.2,rob ver 1A,2013-01-28 15:15:00,
2013-01-28 08:20:00,48.3,36.4,29.50,SSW,212,4.7,5.3,63,-99.99,,,0.00,109.8,rob ver 1A,2013-01-28 15:20:00,
2013-01-28 08:25:00,47.8,37.2,29.50,SSW,198,7.1,8.3,66,-99.99,,,0.00,123,rob ver 1A,2013-01-28 15:25:00,
2013-01-28 08:30:00,48.1,37.7,29.50,SW,214,5.7,6.6,67,-99.99,,,0.00,133.8,rob ver 1B,2013-01-28 15:30:00,
2013-01-28 08:35:00,48.1,37.4,29.50,SW,216,5.5,7.4,66,-99.99,,,0.00,151.3,rob ver 1A,2013-01-28 15:35:00,
2013-01-28 08:40:00,48.8,38.2,29.50,SSW,195,3.4,4.3,66,-99.99,,,0.00,166.1,rob ver 1A,2013-01-28 15:40:00,
2013-01-28 08:45:00,49.9,37.7,29.50,WNW,284,1.7,2.1,62,-99.99,,,0.00,182.2,rob ver 1A,2013-01-28 15:45:00,
2013-01-28 08:50:00,50.8,38.4,29.50,NW,309,2.2,2.5,62,-99.99,,,0.00,198.4,rob ver 1A,2013-01-28 15:50:00,
2013-01-28 08:56:00,51.1,38.2,29.50,WNW,295,1.2,1.7,61,-99.99,,,0.00,213.1,rob ver 1A,2013-01-28 15:56:00,
2013-01-28 09:01:00,51.2,37.9,29.50,WNW,299,2.2,2.7,60,-99.99,,,0.00,228.2,rob ver 1A,2013-01-28 16:01:00,
2013-01-28 09:06:00,50.8,37.5,29.50,NNW,335,3.3,4.2,60,-99.99,,,0.00,243.8,rob ver 1A,2013-01-28 16:06:00,
2013-01-28 09:11:00,50.8,37.4,29.50,NW,308,3.9,4.9,60,-99.99,,,0.00,258.4,rob ver 1A,2013-01-28 16:11:00,
2013-01-28 09:16:00,51.2,37.7,29.50,WNW,298,4.9,7.9,58,-99.99,,,0.00,274.2,rob ver 1A,2013-01-28 16:16:00,
2013-01-28 09:21:00,50.8,37.3,29.50,WNW,287,5.5,6.9,60,-99.99,,,0.00,289.1,rob ver 1A,2013-01-28 16:21:00,
2013-01-28 09:26:00,51.1,38.9,29.50,WNW,291,4.6,5.7,62,-99.99,,,0.00,303.1,rob ver 1A,2013-01-28 16:26:00,
2013-01-28 09:31:00,51.2,39.2,29.50,NNW,336,4.9,5.9,63,-99.99,,,0.00,317.2,rob ver 1A,2013-01-28 16:31:00,
2013-01-28 09:36:00,51.4,38.3,29.53,NW,325,3.6,4.7,61,-99.99,,,0.00,332.6,rob ver 1A,2013-01-28 16:36:00,
2013-01-28 09:41:00,51.9,38.8,29.53,NNW,330,4.5,5.9,62,-99.99,,,0.00,348.4,rob ver 1A,2013-01-28 16:41:00,
2013-01-28 09:46:00,52.0,38.1,29.53,WNW,299,4.3,6.6,57,-99.99,,,0.00,361.5,rob ver 1A,2013-01-28 16:46:00,
2013-01-28 09:51:00,51.5,38.1,29.53,West,270,5.3,7.3,59,-99.99,,,0.00,376,rob ver 1A,2013-01-28 16:51:00,
2013-01-28 09:56:00,51.8,39.1,29.53,WSW,238,4.7,6.9,61,-99.99,,,0.00,393.1,rob ver 1A,2013-01-28 16:56:00,
2013-01-28 10:01:00,52.1,39.1,29.53,SW,231,3.9,5.5,62,-99.99,,,0.00,406.9,rob ver 1A,2013-01-28 17:01:00,
2013-01-28 10:06:00,51.9,38.2,29.53,SW,233,4.0,4.9,60,-99.99,,,0.00,419.4,rob ver 1A,2013-01-28 17:06:00,
2013-01-28 10:11:00,52.1,38.3,29.53,SW,230,4.8,6.5,57,-99.99,,,0.00,431.3,rob ver 1A,2013-01-28 17:11:00,
2013-01-28 10:17:00,52.8,37.9,29.53,SW,219,1.4,2.5,57,-99.99,,,0.00,444.1,rob ver 1A,2013-01-28 17:17:00,
2013-01-28 10:22:00,52.9,38.0,29.53,WSW,244,2.9,4.0,58,-99.99,,,0.00,456.7,rob ver 1A,2013-01-28 17:22:00,
2013-01-28 10:27:00,53.0,37.6,29.53,WSW,242,3.4,5.1,56,-99.99,,,0.00,469.2,rob ver 1A,2013-01-28 17:27:00,
2013-01-28 10:32:00,53.1,38.0,29.53,SW,228,4.3,5.5,57,-99.99,,,0.00,481,rob ver 1B,2013-01-28 17:32:00,
2013-01-28 10:37:00,53.4,38.2,29.53,West,259,3.9,4.9,57,-99.99,,,0.00,493.6,rob ver 1A,2013-01-28 17:37:00,
2013-01-28 10:42:00,53.4,38.1,29.53,SW,223,5.0,6.6,54,-99.99,,,0.00,504.6,rob ver 1A,2013-01-28 17:42:00,
2013-01-28 10:47:00,53.7,38.9,29.53,SW,221,7.0,8.2,54,-99.99,,,0.00,516,rob ver 1A,2013-01-28 17:47:00,
2013-01-28 10:52:00,53.6,38.1,29.53,WSW,246,6.7,8.5,55,-99.99,,,0.00,524.3,rob ver 1A,2013-01-28 17:52:00,
2013-01-28 10:57:00,54.2,39.6,29.53,WSW,240,5.1,7.5,58,-99.99,,,0.00,533.7,rob ver 1A,2013-01-28 17:57:00,
2013-01-28 11:02:00,54.2,38.0,29.53,WSW,251,6.0,7.2,52,-99.99,,,0.00,545.3,rob ver 1A,2013-01-28 18:02:00,
2013-01-28 11:07:00,54.7,38.0,29.53,WSW,248,9.1,11.9,51,-99.99,,,0.00,554.5,rob ver 1A,2013-01-28 18:07:00,
2013-01-28 11:12:00,55.3,37.7,29.53,West,274,5.8,7.7,53,-99.99,,,0.00,563.7,rob ver 1A,2013-01-28 18:12:00,
2013-01-28 11:17:00,55.1,35.8,29.53,WSW,255,6.3,8.0,47,-99.99,,,0.00,547.5,rob ver 1A,2013-01-28 18:17:00,
2013-01-28 11:22:00,55.6,38.1,29.53,West,268,5.7,6.9,51,-99.99,,,0.00,580.1,rob ver 1A,2013-01-28 18:22:00,
2013-01-28 11:27:00,55.8,35.9,29.53,WSW,247,11.6,16.3,45,-99.99,,,0.00,589.6,rob ver 1B,2013-01-28 18:27:00,
2013-01-28 11:32:00,55.7,36.1,29.53,SW,235,13.3,15.9,44,-99.99,,,0.00,597.1,rob ver 1A,2013-01-28 18:32:00,
2013-01-28 11:37:00,55.9,36.5,29.53,SW,234,12.7,15.2,47,-99.99,,,0.00,603.7,rob ver 1A,2013-01-28 18:37:00,
2013-01-28 11:43:00,56.0,36.1,29.53,WSW,255,10.7,13.6,52,-99.99,,,0.00,609.6,rob ver 1A,2013-01-28 18:43:00,
2013-01-28 11:48:00,56.4,36.5,29.53,WSW,239,13.9,17.2,43,-99.99,,,0.00,618,rob ver 1A,2013-01-28 18:48:00,
2013-01-28 11:53:00,55.8,35.9,29.53,SW,220,12.7,15.7,52,-99.99,,,0.00,622.5,rob ver 1A,2013-01-28 18:53:00,
2013-01-28 11:58:00,56.4,36.5,29.53,WSW,248,14.1,16.5,46,-99.99,,,0.00,630.1,rob ver 1A,2013-01-28 18:58:00,
2013-01-28 12:03:00,56.5,36.5,29.53,SW,235,9.6,12.2,42,-99.99,,,0.00,635.5,rob ver 1A,2013-01-28 19:03:00,
2013-01-28 12:08:00,56.6,35.1,29.53,WSW,247,9.4,13.8,44,-99.99,,,0.00,638.6,rob ver 1A,2013-01-28 19:08:00,
2013-01-28 12:13:00,56.6,35.2,29.53,West,261,11.0,15.4,46,-99.99,,,0.00,642,rob ver 1A,2013-01-28 19:13:00,
2013-01-28 12:18:00,56.8,35.7,29.53,SW,230,12.0,14.3,44,-99.99,,,0.00,645.8,rob ver 1A,2013-01-28 19:18:00,
2013-01-28 12:23:00,57.2,34.9,29.53,SW,228,12.4,16.8,42,-99.99,,,0.00,651,rob ver 1A,2013-01-28 19:23:00,
2013-01-28 12:28:00,57.0,34.3,29.53,SW,227,14.4,18.1,39,-99.99,,,0.00,655.9,rob ver 1A,2013-01-28 19:28:00,
2013-01-28 12:33:00,57.2,33.8,29.53,WSW,246,13.8,16.2,40,-99.99,,,0.00,656.8,rob ver 1A,2013-01-28 19:33:00,
2013-01-28 12:38:00,57.1,33.2,29.53,WSW,253,7.8,9.5,43,-99.99,,,0.00,656.7,rob ver 1A,2013-01-28 19:38:00,
2013-01-28 12:43:00,57.9,36.0,29.53,SW,230,11.5,17.2,43,-99.99,,,0.00,656.7,rob ver 1A,2013-01-28 19:43:00,
2013-01-28 12:48:00,57.5,34.6,29.53,SW,227,8.4,10.2,40,-99.99,,,0.00,662.5,rob ver 1A,2013-01-28 19:48:00,
2013-01-28 12:53:00,57.1,33.2,29.53,SW,232,7.0,10.1,39,-99.99,,,0.00,667.2,rob ver 1A,2013-01-28 19:53:00,
2013-01-28 12:58:00,57.4,33.5,29.53,SW,214,9.7,11.8,41,-99.99,,,0.00,675.3,rob ver 1A,2013-01-28 19:58:00,
2013-01-28 13:03:00,57.3,33.0,29.53,West,265,12.1,15.5,43,-99.99,,,0.00,682.3,rob ver 1A,2013-01-28 20:03:00,
2013-01-28 13:08:00,57.8,34.5,29.53,WSW,239,10.4,13.6,42,-99.99,,,0.00,698.6,rob ver 1A,2013-01-28 20:08:00,
2013-01-28 13:13:00,58.0,34.1,29.53,West,266,11.2,13.2,40,-99.99,,,0.00,718,rob ver 1A,2013-01-28 20:13:00,
2013-01-28 13:18:00,58.2,33.5,29.50,SW,229,13.5,16.7,38,-99.99,,,0.00,722,rob ver 1A,2013-01-28 20:18:00,
2013-01-28 13:23:00,57.9,32.5,29.50,SW,231,13.4,17.0,36,-99.99,,,0.00,713,rob ver 1A,2013-01-28 20:23:00,
2013-01-28 13:28:00,57.8,32.5,29.50,WSW,237,14.5,18.9,34,-99.99,,,0.00,733,rob ver 1A,2013-01-28 20:28:00,
2013-01-28 13:33:00,58.2,32.2,29.50,SW,234,14.5,18.4,37,-99.99,,,0.00,674.9,rob ver 1A,2013-01-28 20:33:00,
2013-01-28 13:39:00,58.1,30.6,29.53,WSW,249,14.1,17.4,34,-99.99,,,0.00,687.2,rob ver 1A,2013-01-28 20:39:00,
2013-01-28 13:44:00,58.4,32.3,29.50,WSW,251,13.4,16.6,36,-99.99,,,0.00,674.7,rob ver 1A,2013-01-28 20:44:00,
2013-01-28 13:49:00,58.0,31.5,29.50,WSW,247,10.9,16.0,35,-99.99,,,0.00,686.2,rob ver 1A,2013-01-28 20:49:00,
2013-01-28 13:54:00,58.5,31.7,29.50,WSW,239,13.5,16.6,35,-99.99,,,0.00,703,rob ver 1A,2013-01-28 20:54:00,
2013-01-28 13:59:00,58.4,29.2,29.50,WSW,248,5.3,8.6,33,-99.99,,,0.00,700,rob ver 1A,2013-01-28 20:59:00,
2013-01-28 14:04:00,59.0,32.1,29.50,West,267,13.0,17.0,34,-99.99,,,0.00,699.8,rob ver 1A,2013-01-28 21:04:00,
2013-01-28 14:09:00,58.9,32.3,29.50,SW,234,12.3,14.8,37,-99.99,,,0.00,694.8,rob ver 1A,2013-01-28 21:09:00,
2013-01-28 14:14:00,58.4,31.4,29.50,SW,225,11.1,14.4,36,-99.99,,,0.00,692.9,rob ver 1A,2013-01-28 21:14:00,
2013-01-28 14:19:00,58.9,32.9,29.50,SW,230,11.8,18.8,33,-99.99,,,0.00,694,rob ver 1A,2013-01-28 21:19:00,
2013-01-28 14:24:00,58.4,29.7,29.50,WSW,256,12.9,19.8,32,-99.99,,,0.00,729,rob ver 1A,2013-01-28 21:24:00,
2013-01-28 14:29:00,58.6,31.1,29.50,SW,223,7.4,9.0,35,-99.99,,,0.00,649.7,rob ver 1A,2013-01-28 21:29:00,
2013-01-28 14:34:00,59.1,30.3,29.50,WSW,245,14.1,17.0,33,-99.99,,,0.00,177.3,rob ver 1A,2013-01-28 21:34:00,
2013-01-28 14:39:00,58.3,29.7,29.50,WSW,258,8.7,11.8,35,-99.99,,,0.00,667.7,rob ver 1A,2013-01-28 21:39:00,
2013-01-28 14:44:00,58.6,30.3,29.50,WSW,245,5.6,6.9,35,-99.99,,,0.00,599,rob ver 1A,2013-01-28 21:44:00,
2013-01-28 14:49:00,59.0,30.0,29.50,WSW,240,10.2,12.2,34,-99.99,,,0.00,653.6,rob ver 1A,2013-01-28 21:49:00,
2013-01-28 14:54:00,59.0,30.4,29.50,SW,220,9.7,14.1,33,-99.99,,,0.00,468,rob ver 1A,2013-01-28 21:54:00,
2013-01-28 14:59:00,59.1,30.8,29.50,WSW,242,14.3,17.6,36,-99.99,,,0.00,662.8,rob ver 1A,2013-01-28 21:59:00,
2013-01-28 15:04:00,59.3,31.1,29.50,WSW,256,6.4,9.0,34,-99.99,,,0.00,711,rob ver 1A,2013-01-28 22:04:00,
2013-01-28 15:09:00,59.5,30.5,29.50,WSW,243,10.8,12.9,35,-99.99,,,0.00,281.7,rob ver 1A,2013-01-28 22:09:00,
2013-01-28 15:14:00,59.3,31.1,29.50,West,270,13.5,21.8,33,-99.99,,,0.00,706,rob ver 1A,2013-01-28 22:14:00,
2013-01-28 15:19:00,59.3,32.4,29.50,WSW,250,17.4,25.0,36,-99.99,,,0.00,283.3,rob ver 1A,2013-01-28 22:19:00,
2013-01-28 15:24:00,57.6,32.7,29.50,WNW,299,17.2,19.8,39,-99.99,,,0.00,368.1,rob ver 1A,2013-01-28 22:24:00,
2013-01-28 15:29:00,56.9,34.2,29.50,NW,307,18.9,21.2,44,-99.99,,,0.00,262.3,rob ver 1A,2013-01-28 22:29:00,
2013-01-28 15:35:00,56.3,35.3,29.50,NW,313,16.5,20.8,46,-99.99,,,0.00,170.7,rob ver 1A,2013-01-28 22:35:00,
2013-01-28 15:40:00,55.4,35.0,29.50,NW,317,14.2,16.7,43,-99.99,,,0.00,142.5,rob ver 1B,2013-01-28 22:40:00,
2013-01-28 15:45:00,54.8,35.1,29.50,NNW,328,16.9,20.6,46,-99.99,,,0.00,229.5,rob ver 1A,2013-01-28 22:45:00,
2013-01-28 15:50:00,55.0,34.2,29.50,NW,323,16.0,19.8,44,-99.99,,,0.00,244.6,rob ver 1A,2013-01-28 22:50:00,
2013-01-28 15:55:00,55.0,33.6,29.50,NW,313,18.1,22.6,43,-99.99,,,0.00,233.1,rob ver 1A,2013-01-28 22:55:00,
2013-01-28 16:00:00,54.5,33.4,29.50,NNW,330,14.4,18.7,44,-99.99,,,0.00,317.8,rob ver 1A,2013-01-28 23:00:00,
2013-01-28 16:05:00,54.7,32.9,29.50,NNW,327,13.4,17.2,42,-99.99,,,0.00,145.8,rob ver 1B,2013-01-28 23:05:00,
2013-01-28 16:10:00,54.3,31.8,29.50,NNW,327,16.7,20.8,42,-99.99,,,0.00,98.5,rob ver 1A,2013-01-28 23:10:00,
2013-01-28 16:15:00,54.5,33.1,29.50,NW,321,12.9,15.8,45,-99.99,,,0.00,370.3,rob ver 1A,2013-01-28 23:15:00,
2013-01-28 16:20:00,55.2,33.3,29.50,WNW,301,13.5,17.0,41,-99.99,,,0.00,88,rob ver 1A,2013-01-28 23:20:00,
2013-01-28 16:25:00,54.8,32.6,29.50,NW,310,15.1,18.3,42,-99.99,,,0.00,121,rob ver 1A,2013-01-28 23:25:00,
2013-01-28 16:30:00,54.7,32.4,29.50,NW,305,17.7,22.2,43,-99.99,,,0.00,114.3,rob ver 1A,2013-01-28 23:30:00,
2013-01-28 16:35:00,54.2,32.8,29.50,NW,317,11.9,15.5,43,-99.99,,,0.00,284.4,rob ver 1A,2013-01-28 23:35:00,
2013-01-28 16:40:00,54.7,32.7,29.50,NW,309,11.6,16.6,41,-99.99,,,0.00,84.7,rob ver 1A,2013-01-28 23:40:00,
2013-01-28 16:45:00,54.5,32.0,29.50,NW,312,18.7,25.0,41,-99.99,,,0.00,100,rob ver 1A,2013-01-28 23:45:00,
2013-01-28 16:50:00,54.2,32.9,29.50,NW,313,19.1,23.3,43,-99.99,,,0.00,266,rob ver 1A,2013-01-28 23:50:00,
2013-01-28 16:55:00,54.3,33.3,29.50,NW,316,13.6,20.4,46,-99.99,,,0.00,275,rob ver 1A,2013-01-28 23:55:00,
2013-01-28 17:00:00,54.2,31.6,29.50,NW,306,15.0,18.0,42,-99.99,,,0.00,245,rob ver 1A,2013-01-29 00:00:00,
2013-01-28 17:05:00,54.5,31.9,29.53,NW,309,14.3,17.8,40,-99.99,,,0.00,224.6,rob ver 1A,2013-01-29 00:05:00,
2013-01-28 17:10:00,54.3,32.7,29.50,WNW,295,21.9,27.6,43,-99.99,,,0.00,149.7,rob ver 1A,2013-01-29 00:10:00,
2013-01-28 17:15:00,53.4,33.3,29.50,NW,307,20.4,25.8,45,-99.99,,,0.00,174.1,rob ver 1A,2013-01-29 00:15:00,
2013-01-28 17:20:00,53.3,34.2,29.50,WNW,303,18.6,23.7,47,-99.99,,,0.00,171.4,rob ver 1A,2013-01-29 00:20:00,
2013-01-28 17:25:00,53.0,34.0,29.50,WNW,298,16.6,19.5,47,-99.99,,,0.00,153.2,rob ver 1A,2013-01-29 00:25:00,
2013-01-28 17:30:00,53.2,33.3,29.50,NW,306,16.8,19.1,45,-99.99,,,0.00,132,rob ver 1B,2013-01-29 00:30:00,
2013-01-28 17:35:00,53.3,33.9,29.53,NW,308,11.9,15.9,47,-99.99,,,0.00,105.8,rob ver 1A,2013-01-29 00:35:00,
2013-01-28 17:40:00,53.3,34.1,29.53,NW,305,10.9,14.1,46,-99.99,,,0.00,44.01,rob ver 1A,2013-01-29 00:40:00,
2013-01-28 17:45:00,53.3,31.8,29.50,WNW,283,15.8,18.2,45,-99.99,,,0.00,34.82,rob ver 1A,2013-01-29 00:45:00,
2013-01-28 17:51:00,53.3,32.0,29.53,NW,304,12.2,15.1,43,-99.99,,,0.00,28.25,rob ver 1A,2013-01-29 00:51:00,
2013-01-28 17:56:00,53.5,31.8,29.53,WNW,282,9.0,12.3,42,-99.99,,,0.00,28.91,rob ver 1B,2013-01-29 00:56:00,
2013-01-28 18:01:00,53.6,30.8,29.53,West,271,11.1,13.3,41,-99.99,,,0.00,20.86,rob ver 1A,2013-01-29 01:01:00,
2013-01-28 18:06:00,53.5,31.7,29.50,WSW,247,7.8,13.6,42,-99.99,,,0.00,8.54,rob ver 1A,2013-01-29 01:06:00,
2013-01-28 18:11:00,54.7,24.9,29.50,WNW,300,11.7,18.1,31,-99.99,,,0.00,2.299,rob ver 1A,2013-01-29 01:11:00,
2013-01-28 18:16:00,54.1,32.0,29.53,WSW,240,6.5,7.9,43,-99.99,,,0.00,.986,rob ver 1A,2013-01-29 01:16:00,
2013-01-28 18:21:00,53.8,31.3,29.53,WSW,244,9.0,11.3,43,-99.99,,,0.00,.329,rob ver 1A,2013-01-29 01:21:00,
2013-01-28 18:26:00,53.8,32.0,29.53,WSW,244,8.4,11.4,42,-99.99,,,0.00,.329,rob ver 1A,2013-01-29 01:26:00,
2013-01-28 18:31:00,53.7,31.7,29.53,WSW,246,7.9,9.3,43,-99.99,,,0.00,0,rob ver 1A,2013-01-29 01:31:00,
2013-01-28 18:36:00,53.6,31.9,29.53,WSW,248,8.1,9.6,44,-99.99,,,0.00,0,rob ver 1A,2013-01-29 01:36:00,
2013-01-28 18:41:00,53.6,31.8,29.53,WSW,249,8.2,9.5,42,-99.99,,,0.00,0,rob ver 1A,2013-01-29 01:41:00,
2013-01-28 18:46:00,53.6,32.4,29.53,West,261,6.6,8.7,45,-99.99,,,0.00,0,rob ver 1A,2013-01-29 01:46:00,
2013-01-28 18:51:00,53.3,33.0,29.53,West,260,6.5,7.4,45,-99.99,,,0.00,0,rob ver 1A,2013-01-29 01:51:00,
2013-01-28 18:56:00,53.0,34.7,29.53,WSW,256,4.7,5.4,50,-99.99,,,0.00,0,rob ver 1A,2013-01-29 01:56:00,
2013-01-28 19:01:00,52.9,33.5,29.53,WSW,253,7.4,9.4,47,-99.99,,,0.00,0,rob ver 1A,2013-01-29 02:01:00,
2013-01-28 19:06:00,53.2,32.4,29.53,WSW,242,9.5,13.5,43,-99.99,,,0.00,0,rob ver 1A,2013-01-29 02:06:00,
2013-01-28 19:11:00,53.0,31.7,29.53,WSW,241,12.5,15.1,44,-99.99,,,0.00,0,rob ver 1A,2013-01-29 02:11:00,
2013-01-28 19:16:00,52.8,32.1,29.53,WSW,242,12.4,14.9,44,-99.99,,,0.00,0,rob ver 1A,2013-01-29 02:16:00,
2013-01-28 19:21:00,52.5,32.3,29.53,WSW,249,10.4,12.1,45,-99.99,,,0.00,0,rob ver 1A,2013-01-29 02:21:00,
2013-01-28 19:26:00,52.2,32.9,29.53,WSW,247,7.5,9.6,46,-99.99,,,0.00,0,rob ver 1A,2013-01-29 02:26:00,
2013-01-28 19:31:00,52.1,32.8,29.53,WSW,251,8.4,11.5,47,-99.99,,,0.00,0,rob ver 1A,2013-01-29 02:31:00,
2013-01-28 19:36:00,52.0,32.9,29.53,WSW,257,8.0,10.0,48,-99.99,,,0.00,0,rob ver 1A,2013-01-29 02:36:00,
2013-01-28 19:41:00,51.3,34.9,29.53,West,272,6.0,6.7,53,-99.99,,,0.00,0,rob ver 1A,2013-01-29 02:41:00,
2013-01-28 19:46:00,51.0,35.7,29.53,WNW,287,3.7,4.1,56,-99.99,,,0.00,0,rob ver 1A,2013-01-29 02:46:00,
2013-01-28 19:52:00,51.2,35.7,29.53,NW,306,3.9,4.3,56,-99.99,,,0.00,0,rob ver 1A,2013-01-29 02:52:00,
2013-01-28 19:57:00,50.7,36.4,29.56,NW,310,3.5,4.0,57,-99.99,,,0.00,0,rob ver 1A,2013-01-29 02:57:00,
2013-01-28 20:02:00,50.3,36.1,29.56,NW,316,3.1,3.5,57,-99.99,,,0.00,0,rob ver 1A,2013-01-29 03:02:00,
2013-01-28 20:07:00,50.1,36.0,29.56,NW,324,3.8,4.8,58,-99.99,,,0.00,0,rob ver 1A,2013-01-29 03:07:00,
2013-01-28 20:12:00,49.7,36.6,29.56,NW,322,3.3,3.9,60,-99.99,,,0.00,0,rob ver 1A,2013-01-29 03:12:00,
2013-01-28 20:17:00,49.5,36.4,29.56,NW,318,3.5,3.9,60,-99.99,,,0.00,0,rob ver 1A,2013-01-29 03:17:00,
2013-01-28 20:22:00,49.4,36.3,29.56,NW,310,3.4,4.0,60,-99.99,,,0.00,0,rob ver 1A,2013-01-29 03:22:00,
2013-01-28 20:27:00,49.3,35.8,29.53,NW,322,2.4,2.7,59,-99.99,,,0.00,0,rob ver 1A,2013-01-29 03:27:00,
2013-01-28 20:32:00,49.4,35.7,29.56,NW,321,2.5,2.9,59,-99.99,,,0.00,0,rob ver 1A,2013-01-29 03:32:00,
2013-01-28 20:37:00,49.5,35.7,29.56,NW,325,2.8,3.3,58,-99.99,,,0.00,0,rob ver 1A,2013-01-29 03:37:00,
2013-01-28 20:42:00,49.4,35.7,29.56,NW,322,2.3,2.7,59,-99.99,,,0.00,0,rob ver 1A,2013-01-29 03:42:00,
2013-01-28 20:47:00,49.1,36.5,29.56,NNW,334,2.1,2.4,61,-99.99,,,0.00,0,rob ver 1A,2013-01-29 03:47:00,
2013-01-28 20:52:00,48.6,36.9,29.56,NW,309,1.7,2.1,64,-99.99,,,0.00,0,rob ver 1A,2013-01-29 03:52:00,
2013-01-28 20:57:00,48.2,37.4,29.56,West,280,1.1,1.6,65,-99.99,,,0.00,0,rob ver 1A,2013-01-29 03:57:00,
2013-01-28 21:02:00,48.1,36.9,29.56,WSW,237,1.5,1.6,64,-99.99,,,0.00,0,rob ver 1B,2013-01-29 04:02:00,
2013-01-28 21:07:00,48.2,37.2,29.56,SSW,208,1.4,1.6,64,-99.99,,,0.00,0,rob ver 1A,2013-01-29 04:07:00,
2013-01-28 21:12:00,48.2,36.6,29.56,West,278,2.1,2.3,63,-99.99,,,0.00,0,rob ver 1A,2013-01-29 04:12:00,
2013-01-28 21:17:00,48.2,36.8,29.56,West,270,1.4,1.5,63,-99.99,,,0.00,0,rob ver 1A,2013-01-29 04:17:00,
2013-01-28 21:22:00,48.1,36.7,29.56,WSW,246,2.2,2.3,64,-99.99,,,0.00,0,rob ver 1A,2013-01-29 04:22:00,
2013-01-28 21:27:00,47.8,37.7,29.56,WNW,291,2.2,2.3,69,-99.99,,,0.00,0,rob ver 1A,2013-01-29 04:27:00,
2013-01-28 21:32:00,47.7,36.7,29.56,WSW,257,2.4,2.6,65,-99.99,,,0.00,0,rob ver 1A,2013-01-29 04:32:00,
2013-01-28 21:37:00,47.6,38.2,29.56,WNW,288,1.8,2.5,71,-99.99,,,0.00,0,rob ver 1A,2013-01-29 04:37:00,
2013-01-28 21:42:00,46.8,38.5,29.56,NW,304,1.6,2.0,72,-99.99,,,0.00,0,rob ver 1A,2013-01-29 04:42:00,
2013-01-28 21:47:00,46.4,37.7,29.56,WNW,287,1.9,2.2,71,-99.99,,,0.00,0,rob ver 1A,2013-01-29 04:47:00,
2013-01-28 21:53:00,46.6,37.8,29.56,WNW,294,1.9,2.1,71,-99.99,,,0.00,0,rob ver 1B,2013-01-29 04:53:00,
2013-01-28 21:58:00,46.6,37.7,29.56,WNW,287,2.2,2.6,71,-99.99,,,0.00,0,rob ver 1A,2013-01-29 04:58:00,
2013-01-28 22:00:00,46.6,37.9,29.56,West,274,2.0,2.2,71,-99.99,,,0.00,0,rob ver 1A,2013-01-29 05:00:00,
2013-01-28 22:01:00,46.6,38.0,29.56,West,261,2.0,2.1,71,-99.99,,,0.00,0,rob ver 1A,2013-01-29 05:01:00,
2013-01-28 22:03:00,46.5,37.9,29.56,West,263,1.9,2.2,71,-99.99,,,0.00,0,rob ver 1A,2013-01-29 05:03:00,
2013-01-28 22:08:00,46.6,37.6,29.56,WSW,256,1.5,1.7,71,-99.99,,,0.00,0,rob ver 1A,2013-01-29 05:08:00,
2013-01-28 22:13:00,46.4,37.8,29.56,West,271,0.9,1.3,71,-99.99,,,0.00,0,rob ver 1A,2013-01-29 05:13:00,
2013-01-28 22:19:00,46.2,37.6,29.56,NW,309,1.4,1.6,71,-99.99,,,0.00,0,rob ver 1A,2013-01-29 05:19:00,
2013-01-28 22:24:00,46.2,37.4,29.56,WNW,292,1.1,1.3,71,-99.99,,,0.00,0,rob ver 1A,2013-01-29 05:24:00,
2013-01-28 22:29:00,46.1,37.4,29.56,NNW,332,2.0,2.2,71,-99.99,,,0.00,0,rob ver 1B,2013-01-29 05:29:00,
2013-01-28 22:34:00,45.9,37.5,29.56,NNW,330,2.1,2.3,72,-99.99,,,0.00,0,rob ver 1A,2013-01-29 05:34:00,
2013-01-28 22:39:00,45.8,37.3,29.56,NNW,340,2.6,2.9,71,-99.99,,,0.00,0,rob ver 1A,2013-01-29 05:39:00,
2013-01-28 22:44:00,46.1,37.2,29.56,NNW,343,3.1,3.6,70,-99.99,,,0.00,0,rob ver 1A,2013-01-29 05:44:00,
2013-01-28 22:49:00,45.9,37.9,29.56,North,354,3.8,4.0,73,-99.99,,,0.00,0,rob ver 1A,2013-01-29 05:49:00,
2013-01-28 22:54:00,45.3,38.2,29.56,North,7,3.4,3.6,76,-99.99,,,0.00,0,rob ver 1A,2013-01-29 05:54:00,
2013-01-28 22:59:00,45.3,37.8,29.56,North,354,3.1,3.2,74,-99.99,,,0.00,0,rob ver 1A,2013-01-29 05:59:00,
2013-01-28 23:04:00,45.6,37.5,29.56,North,353,2.3,2.7,73,-99.99,,,0.00,0,rob ver 1A,2013-01-29 06:04:00,
2013-01-28 23:09:00,45.3,37.7,29.56,North,1,1.8,2.4,74,-99.99,,,0.00,0,rob ver 1A,2013-01-29 06:09:00,
2013-01-28 23:14:00,45.0,37.8,29.56,NNW,341,1.4,1.6,75,-99.99,,,0.00,0,rob ver 1A,2013-01-29 06:14:00,
2013-01-28 23:19:00,44.8,37.4,29.59,NNW,327,1.1,1.4,74,-99.99,,,0.00,0,rob ver 1A,2013-01-29 06:19:00,
2013-01-28 23:24:00,45.0,37.2,29.59,NW,325,1.8,2.0,73,-99.99,,,0.00,0,rob ver 1A,2013-01-29 06:24:00,
2013-01-28 23:29:00,45.4,37.0,29.59,NNW,327,1.6,2.0,71,-99.99,,,0.00,0,rob ver 1B,2013-01-29 06:29:00,
2013-01-28 23:34:00,45.6,36.8,29.59,NW,316,1.4,1.5,71,-99.99,,,0.00,0,rob ver 1A,2013-01-29 06:34:00,
2013-01-28 23:39:00,45.6,36.8,29.59,NW,317,0.6,0.8,70,-99.99,,,0.00,0,rob ver 1A,2013-01-29 06:39:00,
2013-01-28 23:44:00,45.4,37.1,29.59,South,173,0.6,0.8,72,-99.99,,,0.00,0,rob ver 1A,2013-01-29 06:44:00,
2013-01-28 23:49:00,45.1,37.6,29.59,SE,140,1.9,2.3,75,-99.99,,,0.00,0,rob ver 1A,2013-01-29 06:49:00,
2013-01-28 23:54:00,43.7,38.1,29.59,ESE,114,1.8,2.0,80,-99.99,,,0.00,0,rob ver 1A,2013-01-29 06:54:00,
2013-01-28 23:59:00,43.5,38.1,29.59,East,86,2.9,3.0,81,-99.99,,,0.00,0,rob ver 1A,2013-01-29 06:59:00,